Time;durP1;ratioP1;P1;durP2;ratioP2;P2;SDS_P1;SDS_P2;PMS_P1;PMS_P2;Temp;Humidity;BMP_temperature;BMP_pressure;BME280_temperature;BME280_humidity;BME280_pressure;Samples;Min_cycle;Max_cycle;Signal;HPM_P1;HPM_P2
2021/01/16 00:00:54;;;;;;;3.22;2.75;;;;;;;-0.77;50.24;101743.02;1730805;82;21149;-46
2021/01/16 00:03:24;;;;;;;3.80;2.85;;;;;;;-0.79;49.98;101743.77;1718599;82;21719;-46
2021/01/16 00:05:53;;;;;;;7.20;3.70;;;;;;;-0.80;50.32;101739.05;1728426;81;21149;-46
2021/01/16 00:08:22;;;;;;;5.42;3.37;;;;;;;-0.79;50.31;101741.22;1722903;82;21310;-45
2021/01/16 00:10:57;;;;;;;4.50;3.00;;;;;;;-0.74;50.67;101727.80;1724211;82;21149;-46
2021/01/16 00:13:27;;;;;;;4.28;3.05;;;;;;;-0.67;50.77;101729.79;1720323;81;21141;-46
2021/01/16 00:15:55;;;;;;;3.85;2.47;;;;;;;-0.60;49.87;101736.90;1724553;82;21129;-46
2021/01/16 00:18:24;;;;;;;3.92;3.05;;;;;;;-0.61;49.48;101734.26;1725570;82;21118;-46
2021/01/16 00:21:01;;;;;;;4.95;2.75;;;;;;;-0.64;49.10;101745.26;1717544;82;21121;-46
2021/01/16 00:23:30;;;;;;;5.33;3.98;;;;;;;-0.67;49.29;101746.80;1723186;82;21185;-45
2021/01/16 00:25:58;;;;;;;3.85;3.10;;;;;;;-0.68;49.49;101752.31;1721879;82;21118;-45
2021/01/16 00:28:31;;;;;;;5.53;3.72;;;;;;;-0.68;49.20;101754.87;1727856;82;21141;-46
2021/01/16 00:30:59;;;;;;;;;;;;;;;-0.64;49.22;101752.92;1726978;82;21136;-44
2021/01/16 00:33:31;;;;;;;4.17;3.20;;;;;;;-0.59;48.96;101751.80;1725102;82;20145;-46
2021/01/16 00:36:01;;;;;;;4.55;2.98;;;;;;;-0.66;49.02;101751.96;1686749;83;21191;-47
2021/01/16 00:38:30;;;;;;;5.50;3.25;;;;;;;-0.68;49.30;101753.59;1682135;84;21651;-46
2021/01/16 00:40:58;;;;;;;3.77;2.87;;;;;;;-0.67;49.23;101747.68;1678938;84;21320;-46
2021/01/16 00:43:27;;;;;;;6.58;3.87;;;;;;;-0.69;48.63;101744.20;1692674;84;21182;-46
2021/01/16 00:45:56;;;;;;;3.92;3.20;;;;;;;-0.75;49.08;101740.12;1683194;84;21238;-46
2021/01/16 00:48:24;;;;;;;5.35;3.40;;;;;;;-0.73;49.20;101738.50;1681248;84;21175;-46
2021/01/16 00:50:55;;;;;;;5.55;3.35;;;;;;;-0.66;48.74;101734.07;1686652;83;21333;-47
2021/01/16 00:53:32;;;;;;;5.75;3.77;;;;;;;-0.50;48.69;101731.72;1766628;79;22919;-47
2021/01/16 00:56:03;;;;;;;4.53;3.50;;;;;;;-0.57;48.77;101736.12;1737684;82;21120;-45
2021/01/16 00:58:31;;;;;;;4.53;3.33;;;;;;;-0.56;48.81;101737.48;1740958;82;21298;-45
2021/01/16 01:01:03;;;;;;;;;;;;;;;-0.51;48.69;101748.73;1732729;82;21585;-45
2021/01/16 01:03:33;;;;;;;4.70;3.75;;;;;;;-0.46;49.00;101749.80;1736474;81;20128;-46
2021/01/16 01:06:01;;;;;;;4.80;3.08;;;;;;;-0.39;48.76;101759.42;1738576;82;21735;-45
2021/01/16 01:08:30;;;;;;;4.47;3.20;;;;;;;-0.29;49.52;101758.95;1738722;82;21144;-46
2021/01/16 01:10:59;;;;;;;4.58;3.50;;;;;;;-0.19;49.89;101759.80;1738484;82;21159;-45
2021/01/16 01:13:28;;;;;;;5.30;3.37;;;;;;;-0.08;50.25;101754.65;1741322;82;21161;-45
2021/01/16 01:15:56;;;;;;;4.55;3.35;;;;;;;-0.02;49.54;101757.43;1738580;82;21643;-45
2021/01/16 01:18:24;;;;;;;4.92;3.60;;;;;;;0.06;49.41;101750.45;1738128;82;21140;-46
2021/01/16 01:20:54;;;;;;;6.35;3.65;;;;;;;0.13;49.73;101754.95;1748830;81;21291;-45
2021/01/16 01:23:22;;;;;;;6.08;3.77;;;;;;;0.19;49.65;101756.45;1735510;82;21645;-45
2021/01/16 01:25:51;;;;;;;5.67;3.87;;;;;;;0.25;49.75;101760.55;1735431;81;21168;-45
2021/01/16 01:28:19;;;;;;;5.62;4.40;;;;;;;0.27;49.80;101758.91;1736808;80;21168;-45
2021/01/16 01:30:49;;;;;;;5.70;4.22;;;;;;;0.30;50.24;101752.60;1738763;81;21129;-45
2021/01/16 01:33:18;;;;;;;6.35;4.30;;;;;;;0.32;50.47;101753.13;1743468;82;21161;-46
2021/01/16 01:35:46;;;;;;;5.12;4.20;;;;;;;0.35;50.58;101751.09;1741893;82;21137;-45
2021/01/16 01:38:16;;;;;;;5.97;4.53;;;;;;;0.37;50.91;101745.61;1741000;82;21152;-45
2021/01/16 01:40:45;;;;;;;7.22;5.40;;;;;;;0.38;51.14;101748.22;1740994;80;21160;-46
2021/01/16 01:43:14;;;;;;;6.95;5.03;;;;;;;0.39;51.43;101740.98;1726199;82;21157;-45
2021/01/16 01:45:43;;;;;;;6.62;4.70;;;;;;;0.41;50.98;101742.34;1738552;82;21160;-46
2021/01/16 01:48:12;;;;;;;6.20;4.08;;;;;;;0.41;50.82;101739.78;1737427;82;21185;-46
2021/01/16 01:50:41;;;;;;;5.42;4.30;;;;;;;0.41;50.65;101732.10;1741838;82;21152;-45
2021/01/16 01:53:09;;;;;;;4.30;3.75;;;;;;;0.41;50.26;101726.98;1731238;81;21280;-46
2021/01/16 01:55:38;;;;;;;5.58;4.08;;;;;;;0.41;49.57;101729.54;1727871;82;21149;-46
2021/01/16 01:58:08;;;;;;;5.53;4.28;;;;;;;0.40;49.08;101729.06;1716034;82;21153;-46
2021/01/16 02:00:37;;;;;;;7.03;4.62;;;;;;;0.39;48.88;101726.05;1725463;82;21172;-46
2021/01/16 02:03:06;;;;;;;6.62;3.80;;;;;;;0.37;48.81;101731.53;1725551;82;21582;-46
2021/01/16 02:05:34;;;;;;;6.00;4.15;;;;;;;0.40;48.91;101741.86;1725031;82;21324;-46
2021/01/16 02:08:04;;;;;;;6.33;4.05;;;;;;;0.39;48.85;101741.42;1724893;82;21177;-46
2021/01/16 02:10:33;;;;;;;5.28;3.90;;;;;;;0.39;48.99;101741.42;1724656;82;21172;-46
2021/01/16 02:13:01;;;;;;;4.60;3.72;;;;;;;0.40;49.28;101738.02;1725592;82;21149;-46
2021/01/16 02:15:43;;;;;;;6.70;4.17;;;;;;;0.41;49.17;101743.19;1723594;82;21283;-46
2021/01/16 02:18:36;;;;;;;5.87;4.57;;;;;;;0.42;49.36;101731.27;1727312;82;21205;-47
2021/01/16 02:21:06;;;;;;;5.35;3.77;;;;;;;0.43;49.27;101731.34;1718765;82;21827;-46
2021/01/16 02:23:50;;;;;;;5.70;4.08;;;;;;;0.43;49.01;101726.62;1724518;82;21585;-46
2021/01/16 02:26:48;;;;;;;5.08;3.80;;;;;;;0.44;48.99;101732.19;1721175;82;21157;-45
2021/01/16 02:29:16;;;;;;;5.62;4.37;;;;;;;0.43;49.03;101730.46;1724266;82;21137;-46
2021/01/16 02:31:53;;;;;;;6.72;4.28;;;;;;;0.44;48.82;101729.63;1724516;82;21152;-46
2021/01/16 02:34:28;;;;;;;9.38;4.47;;;;;;;0.42;49.12;101731.27;1727715;82;21122;-46
2021/01/16 02:37:31;;;;;;;5.95;4.12;;;;;;;0.41;49.00;101727.83;1724839;82;21145;-46
2021/01/16 02:40:18;;;;;;;6.12;4.65;;;;;;;0.40;48.93;101717.54;1725571;82;21157;-46
2021/01/16 02:43:22;;;;;;;6.15;4.25;;;;;;;0.40;49.37;101707.30;1714527;82;21164;-46
2021/01/16 02:46:28;;;;;;;6.00;4.17;;;;;;;0.38;49.03;101707.25;1672217;85;21641;-45
2021/01/16 02:49:10;;;;;;;6.87;4.37;;;;;;;0.42;48.80;101709.50;1773604;79;23115;-45
2021/01/16 02:52:03;;;;;;;4.78;3.77;;;;;;;0.37;49.06;101705.93;1732053;82;21136;-44
2021/01/16 02:54:41;;;;;;;5.10;3.60;;;;;;;0.37;49.34;101704.66;1735089;82;21148;-45
2021/01/16 02:57:10;;;;;;;4.53;3.52;;;;;;;0.37;49.50;101707.22;1734636;82;21173;-44
2021/01/16 02:59:40;;;;;;;6.12;3.85;;;;;;;0.37;49.58;101702.09;1734805;82;21145;-44
2021/01/16 03:02:10;;;;;;;4.75;3.75;;;;;;;0.37;48.97;101694.41;1741043;82;21224;-44
2021/01/16 03:04:39;;;;;;;3.92;3.25;;;;;;;0.35;48.51;101694.77;1740819;82;21192;-44
2021/01/16 03:07:09;;;;;;;4.65;3.45;;;;;;;0.34;47.85;101696.85;1725013;82;21172;-44
2021/01/16 03:09:38;;;;;;;4.05;3.45;;;;;;;0.32;47.87;101702.33;1710880;82;21156;-44
2021/01/16 03:12:07;;;;;;;4.75;3.52;;;;;;;0.33;48.22;101696.41;1740402;82;21179;-44
2021/01/16 03:14:54;;;;;;;4.50;3.42;;;;;;;0.34;48.03;101694.30;1736538;82;21160;-44
2021/01/16 03:17:57;;;;;;;5.00;3.87;;;;;;;0.35;47.92;101692.20;1736161;82;21724;-45
2021/01/16 03:20:31;;;;;;;5.67;4.45;;;;;;;0.37;48.35;101693.13;1728053;82;21145;-46
2021/01/16 03:23:02;;;;;;;5.28;3.75;;;;;;;0.36;48.75;101697.77;1740035;82;21184;-45
2021/01/16 03:25:31;;;;;;;;;;;;;;;0.37;49.17;101698.25;1740671;82;21298;-45
2021/01/16 03:28:01;;;;;;;4.45;3.55;;;;;;;0.39;49.15;101695.33;1740150;82;20149;-46
2021/01/16 03:30:31;;;;;;;4.25;3.52;;;;;;;0.36;49.29;101690.09;1740218;82;21136;-45
2021/01/16 03:32:59;;;;;;;6.30;4.15;;;;;;;0.38;48.72;101688.45;1723792;83;21140;-45
2021/01/16 03:35:29;;;;;;;5.45;3.90;;;;;;;0.37;48.65;101681.61;1741249;82;21212;-45
2021/01/16 03:37:58;;;;;;;6.03;4.30;;;;;;;0.37;49.00;101684.17;1740302;82;21136;-45
2021/01/16 03:40:27;;;;;;;4.83;3.90;;;;;;;0.39;49.19;101692.77;1738095;81;21125;-45
2021/01/16 03:42:55;;;;;;;6.83;3.92;;;;;;;0.40;49.12;101693.22;1726979;82;21294;-45
2021/01/16 03:45:23;;;;;;;6.30;4.00;;;;;;;0.41;49.04;101693.70;1723621;83;21160;-45
2021/01/16 03:47:52;;;;;;;5.50;4.17;;;;;;;0.43;49.08;101695.90;1741370;82;21306;-45
2021/01/16 03:50:22;;;;;;;5.72;4.20;;;;;;;0.45;49.54;101698.09;1741741;82;21109;-45
2021/01/16 03:52:51;;;;;;;6.22;4.28;;;;;;;0.46;49.55;101695.98;1740536;82;21140;-45
2021/01/16 03:55:20;;;;;;;5.75;4.25;;;;;;;0.46;49.12;101701.11;1738855;82;21282;-45
2021/01/16 03:57:48;;;;;;;15.93;4.62;;;;;;;0.46;48.74;101698.14;1738880;82;21322;-45
2021/01/16 04:00:17;;;;;;;8.13;4.85;;;;;;;0.47;48.83;101696.46;1738303;82;21573;-45
2021/01/16 04:02:46;;;;;;;11.83;5.08;;;;;;;0.46;49.22;101699.83;1738345;82;21165;-45
2021/01/16 04:05:15;;;;;;;8.13;4.83;;;;;;;0.47;49.15;101695.18;1738730;82;21174;-45
2021/01/16 04:07:49;;;;;;;9.98;5.53;;;;;;;0.47;48.92;101697.34;1740502;82;21208;-45
2021/01/16 04:10:18;;;;;;;7.90;5.10;;;;;;;0.48;48.83;101710.98;1738941;82;21136;-45
2021/01/16 04:12:46;;;;;;;7.70;5.08;;;;;;;0.47;48.76;101709.27;1737503;82;21196;-45
2021/01/16 04:15:15;;;;;;;5.62;4.65;;;;;;;0.48;48.81;101703.31;1741658;82;21180;-45
2021/01/16 04:17:44;;;;;;;6.22;4.25;;;;;;;0.46;48.94;101704.55;1740784;82;21561;-45
2021/01/16 04:20:13;;;;;;;5.90;4.33;;;;;;;0.46;49.19;101712.63;1725466;82;21160;-45
2021/01/16 04:22:41;;;;;;;6.95;5.12;;;;;;;0.46;49.17;101710.06;1740260;82;21565;-46
2021/01/16 04:25:09;;;;;;;21.48;12.73;;;;;;;0.44;49.30;101700.19;1724089;83;21152;-45
2021/01/16 04:27:38;;;;;;;7.92;5.22;;;;;;;0.44;49.29;101698.91;1741519;82;21184;-44
2021/01/16 04:30:08;;;;;;;6.83;4.95;;;;;;;0.44;49.47;101700.19;1741431;82;21128;-45
2021/01/16 04:32:37;;;;;;;5.05;3.80;;;;;;;0.43;49.52;101702.30;1740447;82;21505;-45
2021/01/16 04:35:08;;;;;;;5.85;4.37;;;;;;;0.42;49.68;101694.14;1738483;82;21121;-45
2021/01/16 04:37:37;;;;;;;5.25;3.87;;;;;;;0.42;49.79;101689.90;1737021;82;21161;-44
2021/01/16 04:40:07;;;;;;;4.45;3.80;;;;;;;0.42;49.76;101686.06;1740521;82;21735;-44
2021/01/16 04:42:38;;;;;;;6.95;4.28;;;;;;;0.42;49.92;101687.73;1730503;82;21144;-44
2021/01/16 04:45:09;;;;;;;7.15;4.70;;;;;;;0.41;50.07;101688.14;1741550;82;21157;-44
2021/01/16 04:47:37;;;;;;;6.15;4.45;;;;;;;0.42;50.19;101692.86;1741249;80;21141;-45
2021/01/16 04:50:08;;;;;;;6.30;4.12;;;;;;;0.41;50.31;101691.98;1712344;82;21708;-45
2021/01/16 04:52:36;;;;;;;5.00;3.72;;;;;;;0.42;50.50;101692.45;1738271;82;21149;-46
2021/01/16 04:55:08;;;;;;;6.25;4.80;;;;;;;0.43;50.60;101689.50;1738393;82;21168;-45
2021/01/16 04:57:37;;;;;;;5.12;3.98;;;;;;;0.44;50.54;101683.54;1738455;82;21121;-44
2021/01/16 05:00:09;;;;;;;9.45;5.08;;;;;;;0.45;50.41;101682.73;1738368;82;21719;-44
2021/01/16 05:02:39;;;;;;;7.45;4.97;;;;;;;0.46;50.45;101685.74;1684232;84;21657;-44
2021/01/16 05:05:12;;;;;;;5.08;3.70;;;;;;;0.46;50.71;101681.91;1668135;85;21218;-45
2021/01/16 05:07:41;;;;;;;7.00;4.12;;;;;;;0.46;50.67;101674.22;1661632;85;21167;-44
2021/01/16 05:10:12;;;;;;;5.60;4.15;;;;;;;0.47;50.41;101668.30;1669724;85;21194;-45
2021/01/16 05:12:59;;;;;;;5.53;4.12;;;;;;;0.46;50.34;101669.09;1665816;85;21206;-44
2021/01/16 05:15:30;;;;;;;6.03;4.33;;;;;;;0.46;50.59;101670.38;1663675;85;21217;-45
2021/01/16 05:18:08;;;;;;;5.40;4.10;;;;;;;0.46;50.66;101671.66;1670983;85;21251;-45
2021/01/16 05:20:44;;;;;;;5.53;4.05;;;;;;;0.50;50.69;101664.54;1774941;79;23534;-45
2021/01/16 05:23:15;;;;;;;5.72;4.40;;;;;;;0.46;50.72;101663.98;1741373;82;21160;-45
2021/01/16 05:25:51;;;;;;;8.05;4.58;;;;;;;0.45;50.84;101659.30;1740784;82;21152;-45
2021/01/16 05:28:25;;;;;;;7.15;4.22;;;;;;;0.49;50.90;101657.30;1771106;79;22496;-45
2021/01/16 05:31:03;;;;;;;6.95;4.72;;;;;;;0.46;50.81;101658.86;1744916;82;21282;-45
2021/01/16 05:33:37;;;;;;;6.08;4.00;;;;;;;0.45;50.49;101657.13;1694513;84;21286;-45
2021/01/16 05:36:12;;;;;;;5.78;4.35;;;;;;;0.51;49.92;101661.17;1816522;77;22963;-45
2021/01/16 05:38:41;;;;;;;5.37;4.30;;;;;;;0.45;49.96;101658.41;1786495;80;21200;-46
2021/01/16 05:41:14;;;;;;;7.53;4.60;;;;;;;0.43;50.25;101657.09;1786556;80;21163;-45
2021/01/16 05:43:43;;;;;;;6.67;4.58;;;;;;;0.42;50.10;101657.02;1739683;81;21231;-45
2021/01/16 05:46:15;;;;;;;4.15;3.25;;;;;;;0.40;49.78;101659.53;1776884;80;21108;-45
2021/01/16 05:48:43;;;;;;;3.03;2.60;;;;;;;0.39;49.42;101662.05;1776876;80;21119;-45
2021/01/16 05:51:11;;;;;;;4.03;2.60;;;;;;;0.36;47.92;101668.33;1785623;79;21206;-45
2021/01/16 05:53:39;;;;;;;2.45;1.90;;;;;;;0.32;47.13;101670.33;1720010;81;21168;-46
2021/01/16 05:56:09;;;;;;;2.45;2.10;;;;;;;0.30;46.88;101670.69;1786679;80;21293;-45
2021/01/16 05:58:37;;;;;;;5.65;2.15;;;;;;;0.28;46.65;101681.28;1752714;81;21163;-45
2021/01/16 06:01:07;;;;;;;2.47;2.10;;;;;;;0.27;46.48;101685.52;1753088;81;21132;-46
2021/01/16 06:03:37;;;;;;;5.12;2.10;;;;;;;0.28;46.59;101691.52;1776261;80;21152;-46
2021/01/16 06:06:10;;;;;;;4.08;2.50;;;;;;;0.29;46.19;101698.40;1785603;79;21135;-46
2021/01/16 06:08:53;;;;;;;3.12;2.02;;;;;;;0.29;45.60;101707.36;1749506;81;21160;-45
2021/01/16 06:11:24;;;;;;;3.50;1.92;;;;;;;0.29;44.21;101716.32;1773608;80;21147;-45
2021/01/16 06:13:55;;;;;;;2.30;1.70;;;;;;;0.36;43.18;101716.58;1765373;80;21599;-45
2021/01/16 06:16:23;;;;;;;3.67;2.10;;;;;;;0.30;42.73;101728.28;1784898;80;21116;-45
2021/01/16 06:18:57;;;;;;;2.10;1.80;;;;;;;0.72;41.69;101725.48;1783450;80;21159;-46
2021/01/16 06:21:29;;;;;;;3.52;1.95;;;;;;;0.85;41.05;101729.33;1713354;83;21172;-45
2021/01/16 06:23:59;;;;;;;7.80;3.87;;;;;;;0.82;40.71;101721.13;1713313;83;21227;-45
2021/01/16 06:26:28;;;;;;;6.78;3.00;;;;;;;0.73;40.29;101716.12;1707145;83;21247;-48
2021/01/16 06:29:00;;;;;;;7.65;2.60;;;;;;;0.63;40.63;101719.20;1714636;83;21168;-46
2021/01/16 06:31:31;;;;;;;4.17;1.90;;;;;;;0.50;42.35;101720.47;1708216;83;21201;-46
2021/01/16 06:36:40;;;;;;;4.85;3.00;;;;;;;0.46;44.46;101718.63;1811828;79;22450;-46
2021/01/16 06:39:10;;;;;;;5.67;4.17;;;;;;;0.39;44.83;101726.05;1740264;82;21805;-46
2021/01/16 06:41:40;;;;;;;7.40;5.45;;;;;;;-0.04;47.11;101727.08;1736480;82;21570;-45
2021/01/16 06:44:15;;;;;;;6.78;5.30;;;;;;;-0.16;49.35;101729.20;1726094;82;21157;-46
2021/01/16 06:46:48;;;;;;;6.53;4.70;;;;;;;-0.19;49.87;101726.55;1733072;82;21588;-45
2021/01/16 06:49:28;;;;;;;6.33;5.20;;;;;;;-0.19;50.46;101732.94;1740818;82;21181;-46
2021/01/16 06:52:01;;;;;;;7.62;5.70;;;;;;;-0.19;51.09;101735.50;1735567;82;21141;-45
2021/01/16 06:54:32;;;;;;;8.83;6.37;;;;;;;-0.18;51.14;101733.39;1687848;84;21180;-45
2021/01/16 06:57:13;;;;;;;9.08;5.97;;;;;;;-0.16;51.21;101733.03;1676421;85;21327;-46
2021/01/16 06:59:45;;;;;;;8.15;5.60;;;;;;;-0.15;51.48;101730.95;1687589;85;21177;-45
2021/01/16 07:02:35;;;;;;;13.45;6.17;;;;;;;-0.13;51.37;101744.67;1687658;85;21137;-45
2021/01/16 07:05:20;;;;;;;7.83;5.50;;;;;;;-0.14;51.35;101742.91;1687336;85;21232;-45
2021/01/16 07:07:52;;;;;;;7.70;5.33;;;;;;;-0.15;51.86;101745.42;1675801;85;21173;-45
2021/01/16 07:10:23;;;;;;;6.55;4.83;;;;;;;-0.18;52.56;101739.78;1676518;85;21185;-45
2021/01/16 07:12:52;;;;;;;9.10;5.10;;;;;;;-0.14;52.09;101744.59;1687985;85;21193;-45
2021/01/16 07:15:21;;;;;;;4.70;3.42;;;;;;;-0.13;52.06;101748.91;1687469;85;21593;-45
2021/01/16 07:17:50;;;;;;;4.78;3.65;;;;;;;-0.12;52.29;101755.75;1687464;85;21172;-45
2021/01/16 07:20:19;;;;;;;7.47;4.85;;;;;;;-0.14;52.46;101753.55;1674999;85;21297;-45
2021/01/16 07:22:50;;;;;;;5.90;4.78;;;;;;;-0.14;53.03;101754.42;1643264;85;21176;-45
2021/01/16 07:25:19;;;;;;;5.35;3.40;;;;;;;-0.15;53.06;101758.21;1685364;85;21168;-45
2021/01/16 07:27:47;;;;;;;6.08;3.25;;;;;;;-0.15;53.13;101764.61;1683940;85;21204;-45
2021/01/16 07:30:17;;;;;;;3.17;2.87;;;;;;;-0.16;53.03;101759.89;1687728;85;21323;-45
2021/01/16 07:32:52;;;;;;;4.17;2.95;;;;;;;-0.18;53.45;101759.36;1650355;86;21205;-45
2021/01/16 07:35:25;;;;;;;5.62;3.72;;;;;;;-0.21;53.61;101755.03;1656405;86;21194;-45
2021/01/16 07:37:59;;;;;;;4.65;3.67;;;;;;;-0.15;53.42;101751.42;1780678;79;28175;-45
2021/01/16 07:40:29;;;;;;;3.30;2.85;;;;;;;-0.29;52.98;101747.45;1777170;80;21258;-45
2021/01/16 07:43:01;;;;;;;3.80;3.37;;;;;;;-0.37;53.31;101759.08;1760176;80;21603;-46
2021/01/16 07:45:39;;;;;;;4.53;3.52;;;;;;;-0.47;53.84;101751.87;1744658;82;21207;-45
2021/01/16 07:48:08;;;;;;;5.53;3.35;;;;;;;-0.56;53.85;101750.66;1746745;82;21167;-46
2021/01/16 07:50:37;;;;;;;4.58;3.58;;;;;;;-0.67;54.35;101757.91;1741696;82;21206;-46
2021/01/16 07:53:07;;;;;;;5.50;4.08;;;;;;;-0.72;55.30;101754.28;1743261;82;21215;-46
2021/01/16 07:55:42;;;;;;;8.40;4.22;;;;;;;-0.73;56.00;101755.11;1734370;82;21199;-45
2021/01/16 07:58:34;;;;;;;5.42;3.95;;;;;;;-0.70;56.79;101749.25;1744695;82;21172;-46
2021/01/16 08:01:32;;;;;;;7.22;5.08;;;;;;;-0.63;57.36;101749.55;1739952;82;21187;-46
2021/01/16 08:04:27;;;;;;;4.70;3.47;;;;;;;-0.53;57.13;101752.92;1746669;82;21212;-46
2021/01/16 08:07:09;;;;;;;4.45;3.83;;;;;;;-0.54;57.57;101755.42;1739327;82;21206;-46
2021/01/16 08:09:52;;;;;;;;;;;;;;;-0.51;57.86;101765.35;1744593;82;21151;-45
2021/01/16 08:12:27;;;;;;;6.45;2.40;;;;;;;-0.50;57.94;101769.67;1744127;82;20267;-45
2021/01/16 08:14:55;;;;;;;3.37;2.75;;;;;;;-0.57;57.26;101770.23;1737236;82;21136;-45
2021/01/16 08:17:28;;;;;;;3.75;2.22;;;;;;;-0.68;57.10;101768.92;1727012;82;21338;-45
2021/01/16 08:20:18;;;;;;;2.33;1.92;;;;;;;-0.75;57.10;101769.52;1739972;82;21131;-45
2021/01/16 08:22:53;;;;;;;2.42;2.08;;;;;;;-0.85;57.36;101765.73;1746382;82;21195;-45
2021/01/16 08:25:24;;;;;;;2.02;1.82;;;;;;;-0.95;57.75;101764.02;1737539;82;21595;-45
2021/01/16 08:27:57;;;;;;;2.83;2.15;;;;;;;-1.03;57.87;101764.11;1665331;84;21684;-45
2021/01/16 08:30:30;;;;;;;10.32;4.83;;;;;;;-1.08;58.32;101759.20;1744918;82;21580;-45
2021/01/16 08:33:10;;;;;;;2.50;2.27;;;;;;;-1.12;59.07;101767.56;1740198;82;21151;-45
2021/01/16 08:35:42;;;;;;;3.58;2.55;;;;;;;-1.19;59.22;101771.92;1744729;82;22326;-45
2021/01/16 08:38:21;;;;;;;6.97;4.17;;;;;;;-1.19;59.54;101769.37;1736849;81;21248;-45
2021/01/16 08:41:05;;;;;;;3.72;2.90;;;;;;;-1.16;59.94;101768.24;1735254;82;21191;-45
2021/01/16 08:43:44;;;;;;;2.45;2.10;;;;;;;-1.16;60.35;101764.41;1765667;81;21139;-45
2021/01/16 08:46:27;;;;;;;3.40;2.15;;;;;;;-1.22;60.77;101769.27;1676765;85;21291;-45
2021/01/16 08:51:53;;;;;;;2.55;2.20;;;;;;;-1.27;61.49;101751.19;1825180;77;23034;-46
2021/01/16 08:54:23;;;;;;;11.08;7.62;;;;;;;-1.29;62.03;101749.38;1814139;77;21153;-45
2021/01/16 08:56:56;;;;;;;12.78;9.40;;;;;;;-1.22;62.30;101738.63;1813424;77;21196;-45
2021/01/16 08:59:33;;;;;;;10.93;7.15;;;;;;;-1.09;62.22;101747.23;1823680;77;21134;-45
2021/01/16 09:02:11;;;;;;;9.50;6.58;;;;;;;-1.03;62.24;101741.97;1760960;80;21157;-45
2021/01/16 09:04:44;;;;;;;11.28;7.55;;;;;;;-1.04;62.25;101747.03;1762569;79;21151;-47
2021/01/16 09:07:23;;;;;;;12.47;8.13;;;;;;;-1.04;62.51;101738.09;1751404;79;21164;-47
2021/01/16 09:09:58;;;;;;;12.33;8.45;;;;;;;-1.05;62.70;101733.38;1759239;79;21159;-47
2021/01/16 09:12:39;;;;;;;17.80;10.45;;;;;;;-1.05;62.69;101735.93;1761447;79;21582;-47
2021/01/16 09:15:23;;;;;;;12.18;7.85;;;;;;;-1.06;62.72;101730.77;1764749;79;21171;-45
2021/01/16 09:18:14;;;;;;;7.78;5.70;;;;;;;-1.07;63.10;101731.59;1765174;79;21143;-45
2021/01/16 09:20:53;;;;;;;15.05;9.85;;;;;;;-1.03;63.12;101723.25;1760285;79;21203;-45
2021/01/16 09:23:25;;;;;;;15.55;10.18;;;;;;;-1.05;63.31;101713.38;1756044;79;21143;-45
2021/01/16 09:26:07;;;;;;;13.78;8.45;;;;;;;-1.09;63.69;101711.47;1749254;79;21171;-45
2021/01/16 09:28:53;;;;;;;7.55;5.65;;;;;;;-1.11;63.99;101714.38;1758539;79;21187;-45
2021/01/16 09:31:28;;;;;;;12.15;8.80;;;;;;;-1.14;64.19;101710.44;1772437;79;21220;-46
2021/01/16 09:34:00;;;;;;;10.03;6.58;;;;;;;-1.14;64.27;101709.16;1746088;81;21770;-46
2021/01/16 09:36:41;;;;;;;7.22;4.95;;;;;;;-1.12;64.18;101707.54;1760774;79;21128;-46
2021/01/16 09:39:24;;;;;;;7.35;5.75;;;;;;;-1.11;64.14;101706.72;1755954;79;21171;-46
2021/01/16 09:41:59;;;;;;;7.83;5.67;;;;;;;-1.05;64.17;101712.09;1757515;79;21133;-46
2021/01/16 09:44:46;;;;;;;7.95;5.37;;;;;;;-1.00;63.91;101708.02;1691870;83;21585;-46
2021/01/16 09:47:32;;;;;;;9.73;6.08;;;;;;;-0.95;63.52;101711.65;1692378;83;21184;-47
2021/01/16 09:50:11;;;;;;;18.45;11.90;;;;;;;-0.88;63.47;101704.67;1690621;83;21165;-45
2021/01/16 09:52:49;;;;;;;10.43;6.62;;;;;;;-0.90;63.25;101696.08;1704573;83;21179;-45
2021/01/16 09:55:27;;;;;;;10.00;6.72;;;;;;;-0.98;63.52;101694.52;1706314;82;21133;-45
2021/01/16 09:58:04;;;;;;;8.30;5.95;;;;;;;-0.99;63.81;101690.20;1798930;79;22967;-46
2021/01/16 10:00:35;;;;;;;;;;;;;;;-1.11;64.02;101687.56;1756389;80;21147;-46
2021/01/16 10:03:08;;;;;;;13.88;9.85;;;;;;;-1.17;64.01;101684.77;1745292;80;20302;-46
2021/01/16 10:05:41;;;;;;;13.30;8.68;;;;;;;-1.20;64.37;101675.72;1729364;81;21144;-46
2021/01/16 10:08:09;;;;;;;12.03;8.78;;;;;;;-1.21;64.34;101672.69;1756934;80;21161;-46
2021/01/16 10:10:47;;;;;;;10.48;6.80;;;;;;;-1.22;64.31;101668.01;1738787;80;21181;-46
2021/01/16 10:13:38;;;;;;;8.60;6.00;;;;;;;-1.17;64.35;101663.05;1756763;79;23542;-46
2021/01/16 10:16:10;;;;;;;7.17;5.25;;;;;;;-1.26;64.26;101661.44;1735877;82;21168;-47
2021/01/16 10:18:40;;;;;;;6.00;4.78;;;;;;;-1.30;64.34;101661.69;1631705;87;21220;-47
2021/01/16 10:21:11;;;;;;;6.70;4.90;;;;;;;-1.29;64.42;101656.19;1628917;87;21411;-47
2021/01/16 10:23:42;;;;;;;7.95;5.37;;;;;;;-1.27;64.77;101648.19;1600144;89;21184;-47
2021/01/16 10:26:16;;;;;;;4.87;3.67;;;;;;;-1.26;64.78;101638.45;1590131;90;21213;-47
2021/01/16 10:28:52;;;;;;;5.33;3.10;;;;;;;-1.24;64.59;101645.77;1608037;88;21566;-47
2021/01/16 10:31:23;;;;;;;8.18;5.42;;;;;;;-1.23;64.75;101652.60;1590932;89;21685;-47
2021/01/16 10:33:53;;;;;;;8.90;4.30;;;;;;;-1.21;64.77;101640.77;1580446;90;21218;-45
2021/01/16 10:36:21;;;;;;;6.40;4.53;;;;;;;-1.18;65.00;101637.95;1587335;89;21209;-47
2021/01/16 10:38:53;;;;;;;5.47;4.08;;;;;;;-1.13;64.64;101641.94;1597715;89;21199;-46
2021/01/16 10:41:35;;;;;;;7.70;5.05;;;;;;;-1.08;64.51;101643.00;1608070;89;21681;-47
2021/01/16 10:44:12;;;;;;;7.65;5.33;;;;;;;-1.01;64.46;101637.33;1806288;79;21690;-46
2021/01/16 10:46:52;;;;;;;6.20;4.35;;;;;;;-1.05;64.29;101646.97;1772912;80;21560;-46
2021/01/16 10:49:25;;;;;;;8.58;5.75;;;;;;;-1.06;64.29;101643.93;1772515;80;21139;-46
2021/01/16 10:52:02;;;;;;;7.25;5.03;;;;;;;-1.09;64.47;101651.06;1769287;80;21124;-46
2021/01/16 10:54:31;;;;;;;7.55;4.97;;;;;;;-1.11;64.36;101653.08;1711983;82;21171;-46
2021/01/16 10:57:04;;;;;;;6.25;5.03;;;;;;;-1.18;64.30;101649.44;1726367;82;21147;-46
2021/01/16 10:59:34;;;;;;;9.58;6.53;;;;;;;-1.19;64.30;101653.19;1739617;82;21143;-46
2021/01/16 11:02:13;;;;;;;8.13;5.80;;;;;;;-1.23;64.34;101647.09;1727139;82;21143;-46
2021/01/16 11:04:44;;;;;;;8.18;5.78;;;;;;;-1.26;64.41;101644.84;1718268;82;21227;-46
2021/01/16 11:07:27;;;;;;;7.95;4.87;;;;;;;-1.30;64.65;101640.42;1716190;82;22039;-47
2021/01/16 11:10:08;;;;;;;6.17;4.72;;;;;;;-1.31;64.65;101633.56;1725287;82;21788;-46
2021/01/16 11:12:37;;;;;;;5.47;3.80;;;;;;;-1.30;64.79;101632.77;1728730;82;21136;-46
2021/01/16 11:15:25;;;;;;;6.90;4.87;;;;;;;-1.28;64.55;101622.20;1721258;83;21147;-46
2021/01/16 11:17:59;;;;;;;8.45;5.67;;;;;;;-1.31;64.61;101614.02;1720618;82;21152;-46
2021/01/16 11:20:32;;;;;;;6.25;4.50;;;;;;;-1.35;64.50;101603.22;1719848;82;21147;-46
2021/01/16 11:23:30;;;;;;;6.22;4.08;;;;;;;-1.35;64.70;101606.16;1699065;83;21695;-46
2021/01/16 11:26:08;;;;;;;7.70;4.35;;;;;;;-1.34;64.86;101611.75;1720944;82;21163;-46
2021/01/16 11:28:55;;;;;;;8.55;5.08;;;;;;;-1.33;65.06;101604.14;1718602;82;21132;-46
2021/01/16 11:31:33;;;;;;;9.78;5.72;;;;;;;-1.28;64.86;101604.33;1728799;82;21178;-46
2021/01/16 11:34:18;;;;;;;11.18;7.35;;;;;;;-1.27;64.98;101602.23;1728739;82;21361;-45
2021/01/16 11:37:05;;;;;;;9.58;5.70;;;;;;;-1.25;65.37;101598.05;1708567;82;21351;-45
2021/01/16 11:39:50;;;;;;;8.08;5.85;;;;;;;-1.19;65.44;101599.56;1803246;79;23056;-45
2021/01/16 11:42:19;;;;;;;6.60;4.92;;;;;;;-1.21;65.71;101607.57;1771459;80;21533;-46
2021/01/16 11:45:01;;;;;;;9.78;6.78;;;;;;;-1.20;65.15;101606.78;1785169;80;21568;-46
2021/01/16 11:47:31;;;;;;;8.50;5.08;;;;;;;-1.20;63.33;101609.33;1723390;83;21166;-46
2021/01/16 11:50:06;;;;;;;7.80;5.35;;;;;;;-1.19;61.93;101602.12;1728522;82;21140;-45
2021/01/16 11:52:34;;;;;;;4.83;4.15;;;;;;;-1.14;61.46;101600.63;1723907;82;21172;-46
2021/01/16 11:55:10;;;;;;;13.22;7.35;;;;;;;-1.12;60.63;101590.06;1720983;83;21302;-45
2021/01/16 11:57:39;;;;;;;12.13;6.40;;;;;;;-1.14;59.83;101585.30;1736702;81;21623;-46
2021/01/16 12:00:09;;;;;;;17.45;7.90;;;;;;;-1.17;59.13;101597.94;1728481;83;21180;-46
2021/01/16 12:02:43;;;;;;;4.75;3.52;;;;;;;-1.21;58.65;101601.19;1694969;83;21330;-46
2021/01/16 12:05:13;;;;;;;8.30;4.70;;;;;;;-1.26;58.72;101601.43;1736808;81;21184;-46